AirNav   Everest Fuels
 
 416 users online  

4NK9 Corporate Park of Staten Island Heliport
Staten Island, New York, USA

GOING TO STATEN ISLAND?


FAA INFORMATION EFFECTIVE 26 MARCH 2020

Location

FAA Identifier: 4NK9
Lat/Long: 40-37-02.0000N 074-10-33.0000W
40-37.033333N 074-10.550000W
40.6172222,-74.1758333
(estimated)
Elevation: 5 ft. / 2 m (estimated)
Time zone: UTC -4 (UTC -5 during Standard Time)
Zip code: 10314

Heliport Operations

Heliport use: Private use. Permission required prior to landing
Activation date: 09/2004
Control tower: no
ARTCC: NEW YORK CENTER
FSS: NEW YORK FLIGHT SERVICE STATION
Attendance: UNATNDD
Wind indicator: yes
Segmented circle: no
Lights: FOR PERIMETER LGTS CALL 718-494-8666.

Heliport Communications

WX AWOS-3 at LDJ (3 nm W): 124.025 (908-862-7383)
WX ASOS at EWR (5 nm N): PHONE 973-621-2892
WX AWOS-3PT at JRB (9 nm NE): 128.175 (212-425-1534)
WX ASOS at TEB (15 nm N): 132.025 (201-393-0855)
WX AWOS-3 at MMU (15 nm NW): PHONE 973-290-0135
WX ASOS at CDW (16 nm N): 135.5 (973-575-4417)
WX ASOS at LGA (17 nm NE): PHONE 718-672-6317
WX ASOS at JFK (18 nm E): 128.725 (718-656-0956)

Nearby radio navigation aids

VOR radial/distance  VOR name  Freq  Var
CRIr282/12.8CANARSIE VOR/DME112.3011W
TEBr211/14.8TETERBORO VOR/DME108.4011W
LGAr246/17.2LA GUARDIA VOR/DME113.1012W
COLr009/18.4COLTS NECK VOR/DME115.4011W
JFKr279/18.4KENNEDY VOR/DME115.9012W
SBJr095/25.9SOLBERG VOR/DME112.9010W
RBVr040/28.8ROBBINSVILLE VORTAC113.8010W
BWZr121/31.3BROADWAY VOR/DME114.2011W
SAXr160/31.6SPARTA VORTAC115.7011W
STWr137/38.8STILLWATER VOR/DME109.6011W
ARDr067/39.9YARDLEY VOR/DME108.2010W

 
NDB name  Hdg/Dist  Freq  Var  ID
TORBY202/11.421412WTE - .
CHATHAM136/13.725413WCAT -.-. .- -
LAKEHURST023/35.139611WNEL -. . .-..
BABYLON279/36.227514WBBN -... -... -.

Heliport Services

Runway Information

Helipad H1

Dimensions: 70 x 70 ft. / 21 x 21 m
Surface: asphalt
Runway edge lights: PERI
Traffic pattern: leftleft

Heliport Ownership and Management from official FAA records

Ownership: Privately-owned
Owner: NICOTRA GROUP LLC
110 SOUTH AVE
STATEN ISLAND, NY 10314
Phone 718-494-8666
Manager: ANTHONY CASSILLO
33 SHIRRA AVENUE
STATEN ISLAND, NY 10314
Phone 718-494-8666

Heliport Operational Statistics

Aircraft based on the field: 1
Helicopters: 1
    

Additional Remarks

FOR CD CTC NEW YORK APCH AT 800-645-3206.

Instrument Procedures

There are no published instrument procedures at 4NK9.

Some nearby airports with instrument procedures:

KLDJ - Linden Airport (3 nm W)
KEWR - Newark Liberty International Airport (5 nm N)
KJRB - Downtown Manhattan/Wall Street Heliport (9 nm NE)
KJRA - West 30th St Heliport (11 nm NE)
6N5 - East 34th Street Heliport (12 nm NE)
KTEB - Teterboro Airport (15 nm N)
KMMU - Morristown Municipal Airport (15 nm NW)
KCDW - Essex County Airport (16 nm N)
KLGA - LaGuardia Airport (17 nm NE)
KJFK - John F Kennedy International Airport (18 nm E)
 
Loc | Ops | Rwys | IFR | FBO | Links
Com | Nav | Svcs | Stats | Notes
Area around 4NK9 (Corporate Park of Staten Island Heliport)
 
Road maps at: MapQuest Bing Google
 
Aerial photo
No photo
 
Sectional chart

 
Airport distance calculator
Flying to Corporate Park of Staten Island Heliport? Find the distance to fly.

From to 4NK9

Sunrise and sunset
Times for 09-Apr-2020
 Local
(UTC-4)
 Zulu
(UTC)
Morning civil twilight05:5909:59
Sunrise06:2710:27
Sunset19:2923:29
Evening civil twilight19:5723:57

Current date and time
Zulu (UTC)  09-Apr-2020 05:47:47
Local (UTC-4)  09-Apr-2020 01:47:47
 
METAR
KLDJ 
3nm W 
090535Z AUTO 00000KT 10SM CLR 09/06 A2964 RMK AO2 T00880062
KEWR 
4nm N 
090451Z 17005KT 10SM FEW250 09/07 A2963 RMK AO2 SLP034 T00940072 402060094
KJRB 
9nm NE 
090456Z AUTO 23004KT 10SM CLR 09/07 A2965 RMK AO2 SLP039 T00940067 401940094
KNYC 
14nm NE 
090451Z AUTO 16005KT 10SM CLR 10/06 A2965 RMK AO2 PRESFR SLP030 T01000061 401780094
KMMU 
15nm NW 
090535Z AUTO 21003KT 10SM CLR 07/07 A2964 RMK AO2
KTEB 
16nm N 
090451Z 16007KT 10SM CLR 09/06 A2961 RMK AO2 PRESFR SLP027 T00890061 401830089
KLGA 
17nm NE 
090451Z 18010KT 10SM CLR 09/06 A2962 RMK AO2 PRESFR SLP031 T00940056 401720094
KCDW 
17nm N 
090453Z AUTO 00000KT 10SM CLR 10/07 A2961 RMK AO2 PRESFR SLP033 T01000072 401940100
KJFK 
19nm E 
090532Z 20013KT 10SM FEW009 08/08 A2963 RMK AO2 T00830078
TAF
KEWR 
4nm N 
090232Z 0903/1006 16006KT P6SM SCT050 FM091000 16012KT P6SM FEW020 BKN080 FM091500 16015G24KT 3SM -SHRA BR BKN020 BKN060 WS020/22040KT PROB30 0915/0919 2SM TS BR OVC015CB FM091900 29024G33KT P6SM VCSH SCT035 OVC060 FM092200 28022G37KT P6SM SCT060 FM100200 27017G24KT P6SM SCT050
KTEB 
16nm N 
090232Z 0903/1006 VRB03KT P6SM SCT050 FM091000 16008KT P6SM SCT020 BKN050 FM091500 18012G21KT 3SM -SHRA BR BKN020 BKN060 WS020/22040KT PROB30 0915/0919 2SM TS BR OVC015CB FM091900 29022G33KT P6SM VCSH SCT035 OVC050 FM092200 28019G38KT P6SM SCT050 FM100200 27017G24KT P6SM SCT050
KLGA 
17nm NE 
090232Z 0903/1006 17004KT P6SM SCT050 FM091000 16010KT P6SM FEW015 BKN080 FM091500 16017G25KT 3SM -SHRA BR BKN025 BKN060 WS020/22045KT PROB30 0915/0919 2SM TS BR OVC015CB FM091900 29026G36KT P6SM VCSH SCT035 OVC050 FM092200 29024G38KT P6SM SCT050 FM100200 28018G26KT P6SM FEW050
KJFK 
19nm E 
090232Z 0903/1006 17005KT P6SM SCT050 FM091000 16011KT P6SM SCT015 BKN080 FM091500 17019G27KT 3SM -SHRA BR BKN025 BKN060 WS020/22050KT PROB30 0915/0919 2SM TS BR OVC015CB FM091900 28023G36KT P6SM VCSH SCT035 OVC050 FM092200 28020G37KT P6SM SCT050 FM100200 28021G27KT P6SM FEW050
NOTAMs
Click for the latest NOTAMs
NOTAMs are issued by the DoD/FAA and will open in a separate window not controlled by AirNav.

 

 
 

Would you like to see your business listed on this page?

 If your business provides an interesting product or service to pilots, flight crews, aircraft, or users of the Corporate Park of Staten Island Heliport, you should consider listing it here.  To start the listing process, click on the button below
 
Add a business
 

Other Pages about Corporate Park of Staten Island Heliport

Update a link
 
Copyright © AirNav, LLC. All rights reserved. Privacy Policy  Contact